sensor_id;sensor_type;location;lat;lon;timestamp;pressure;altitude;pressure_sealevel;temperature;humidity
41945;BME280;63122;52.424;13.458;2023-04-19T00:00:06;102087.88;;;8.05;100.00
41945;BME280;63122;52.424;13.458;2023-04-19T00:02:23;102087.69;;;8.09;100.00
41945;BME280;63122;52.424;13.458;2023-04-19T00:04:22;102079.06;;;8.06;100.00
41945;BME280;63122;52.424;13.458;2023-04-19T00:06:18;102076.63;;;8.03;100.00
41945;BME280;63122;52.424;13.458;2023-04-19T00:08:13;102073.34;;;8.00;100.00
41945;BME280;63122;52.424;13.458;2023-04-19T00:10:09;102076.19;;;7.97;100.00
41945;BME280;63122;52.424;13.458;2023-04-19T00:12:04;102071.78;;;7.97;100.00
41945;BME280;63122;52.424;13.458;2023-04-19T00:14:00;102068.28;;;7.97;100.00
41945;BME280;63122;52.424;13.458;2023-04-19T00:15:55;102068.50;;;7.93;100.00
41945;BME280;63122;52.424;13.458;2023-04-19T00:17:51;102066.59;;;7.96;100.00
41945;BME280;63122;52.424;13.458;2023-04-19T00:19:49;102073.75;;;7.93;100.00
41945;BME280;63122;52.424;13.458;2023-04-19T00:21:45;102063.13;;;7.95;100.00
41945;BME280;63122;52.424;13.458;2023-04-19T00:23:40;102062.38;;;7.93;100.00
41945;BME280;63122;52.424;13.458;2023-04-19T00:25:35;102065.97;;;7.92;100.00
41945;BME280;63122;52.424;13.458;2023-04-19T00:27:30;102064.47;;;7.88;100.00
41945;BME280;63122;52.424;13.458;2023-04-19T00:29:26;102066.47;;;7.84;100.00
41945;BME280;63122;52.424;13.458;2023-04-19T00:31:22;102060.38;;;7.84;100.00
41945;BME280;63122;52.424;13.458;2023-04-19T00:33:17;102061.97;;;7.86;100.00
41945;BME280;63122;52.424;13.458;2023-04-19T00:35:15;102063.84;;;7.84;100.00
41945;BME280;63122;52.424;13.458;2023-04-19T00:37:16;102055.75;;;7.87;100.00
41945;BME280;63122;52.424;13.458;2023-04-19T00:39:12;102059.13;;;7.89;100.00
41945;BME280;63122;52.424;13.458;2023-04-19T00:41:08;102059.34;;;7.86;100.00
41945;BME280;63122;52.424;13.458;2023-04-19T00:43:03;102068.25;;;7.84;100.00
41945;BME280;63122;52.424;13.458;2023-04-19T00:44:59;102069.19;;;7.83;100.00
41945;BME280;63122;52.424;13.458;2023-04-19T00:46:55;102058.88;;;7.80;100.00
41945;BME280;63122;52.424;13.458;2023-04-19T00:48:50;102071.47;;;7.74;100.00
41945;BME280;63122;52.424;13.458;2023-04-19T00:50:48;102061.44;;;7.67;100.00
41945;BME280;63122;52.424;13.458;2023-04-19T00:52:45;102058.09;;;7.64;100.00
41945;BME280;63122;52.424;13.458;2023-04-19T00:54:42;102064.16;;;7.65;100.00
41945;BME280;63122;52.424;13.458;2023-04-19T00:56:37;102064.16;;;7.65;100.00
41945;BME280;63122;52.424;13.458;2023-04-19T00:58:32;102064.91;;;7.67;100.00
41945;BME280;63122;52.424;13.458;2023-04-19T01:00:28;102061.38;;;7.68;100.00
41945;BME280;63122;52.424;13.458;2023-04-19T01:02:23;102067.66;;;7.66;99.58
41945;BME280;63122;52.424;13.458;2023-04-19T01:04:20;102058.09;;;7.64;99.79
41945;BME280;63122;52.424;13.458;2023-04-19T01:06:19;102072.25;;;7.62;99.88
41945;BME280;63122;52.424;13.458;2023-04-19T01:08:14;102065.22;;;7.62;99.47
41945;BME280;63122;52.424;13.458;2023-04-19T01:10:09;102072.44;;;7.59;97.74
41945;BME280;63122;52.424;13.458;2023-04-19T01:12:05;102069.72;;;7.60;98.04
41945;BME280;63122;52.424;13.458;2023-04-19T01:14:00;102064.09;;;7.52;98.34
41945;BME280;63122;52.424;13.458;2023-04-19T01:15:56;102074.53;;;7.54;98.40
41945;BME280;63122;52.424;13.458;2023-04-19T01:17:52;102074.59;;;7.52;98.07
41945;BME280;63122;52.424;13.458;2023-04-19T01:19:48;102071.91;;;7.54;99.05
41945;BME280;63122;52.424;13.458;2023-04-19T01:21:46;102068.59;;;7.50;97.32
41945;BME280;63122;52.424;13.458;2023-04-19T01:23:44;102071.22;;;7.50;97.22
41945;BME280;63122;52.424;13.458;2023-04-19T01:25:39;102074.25;;;7.44;97.38
41945;BME280;63122;52.424;13.458;2023-04-19T01:27:35;102070.69;;;7.45;97.44
41945;BME280;63122;52.424;13.458;2023-04-19T01:29:30;102060.31;;;7.43;98.12
41945;BME280;63122;52.424;13.458;2023-04-19T01:31:25;102068.16;;;7.43;98.23
41945;BME280;63122;52.424;13.458;2023-04-19T01:33:20;102067.22;;;7.44;96.97
41945;BME280;63122;52.424;13.458;2023-04-19T01:35:16;102062.06;;;7.43;97.18
41945;BME280;63122;52.424;13.458;2023-04-19T01:37:12;102068.38;;;7.40;97.31
41945;BME280;63122;52.424;13.458;2023-04-19T01:39:10;102066.22;;;7.32;95.89
41945;BME280;63122;52.424;13.458;2023-04-19T01:41:05;102064.41;;;7.33;96.44
41945;BME280;63122;52.424;13.458;2023-04-19T01:43:01;102062.19;;;7.27;95.18
41945;BME280;63122;52.424;13.458;2023-04-19T01:44:56;102049.25;;;7.24;96.94
41945;BME280;63122;52.424;13.458;2023-04-19T01:46:51;102064.16;;;7.23;97.34
41945;BME280;63122;52.424;13.458;2023-04-19T01:48:47;102054.59;;;7.22;96.50
41945;BME280;63122;52.424;13.458;2023-04-19T01:50:42;102054.78;;;7.19;97.18
41945;BME280;63122;52.424;13.458;2023-04-19T01:52:37;102059.94;;;7.20;97.35
41945;BME280;63122;52.424;13.458;2023-04-19T01:54:35;102056.38;;;7.22;97.00
41945;BME280;63122;52.424;13.458;2023-04-19T01:56:31;102046.34;;;7.14;96.88
41945;BME280;63122;52.424;13.458;2023-04-19T01:58:26;102046.53;;;7.11;97.12
41945;BME280;63122;52.424;13.458;2023-04-19T02:00:22;102048.31;;;7.10;97.80
41945;BME280;63122;52.424;13.458;2023-04-19T02:02:17;102041.31;;;7.11;97.80
41945;BME280;63122;52.424;13.458;2023-04-19T02:04:13;102043.19;;;7.09;98.36
41945;BME280;63122;52.424;13.458;2023-04-19T02:06:09;102048.50;;;7.07;98.36
41945;BME280;63122;52.424;13.458;2023-04-19T02:08:05;102047.00;;;7.03;97.89
41945;BME280;63122;52.424;13.458;2023-04-19T02:10:04;102047.22;;;7.00;98.52
41945;BME280;63122;52.424;13.458;2023-04-19T02:11:59;102046.53;;;6.96;98.79
41945;BME280;63122;52.424;13.458;2023-04-19T02:13:55;102041.47;;;6.93;98.31
41945;BME280;63122;52.424;13.458;2023-04-19T02:15:50;102044.59;;;6.85;98.92
41945;BME280;63122;52.424;13.458;2023-04-19T02:17:45;102041.88;;;6.87;100.00
41945;BME280;63122;52.424;13.458;2023-04-19T02:19:41;102044.69;;;6.84;100.00
41945;BME280;63122;52.424;13.458;2023-04-19T02:21:37;102034.25;;;6.82;100.00
41945;BME280;63122;52.424;13.458;2023-04-19T02:23:32;102038.00;;;6.78;100.00
41945;BME280;63122;52.424;13.458;2023-04-19T02:25:30;102036.53;;;6.74;100.00
41945;BME280;63122;52.424;13.458;2023-04-19T02:27:25;102039.06;;;6.75;100.00
41945;BME280;63122;52.424;13.458;2023-04-19T02:29:20;102040.81;;;6.75;100.00
41945;BME280;63122;52.424;13.458;2023-04-19T02:31:16;102033.06;;;6.73;100.00
41945;BME280;63122;52.424;13.458;2023-04-19T02:33:11;102032.13;;;6.74;100.00
41945;BME280;63122;52.424;13.458;2023-04-19T02:35:07;102034.94;;;6.71;100.00
41945;BME280;63122;52.424;13.458;2023-04-19T02:37:03;102037.84;;;6.67;100.00
41945;BME280;63122;52.424;13.458;2023-04-19T02:39:01;102035.22;;;6.67;100.00
41945;BME280;63122;52.424;13.458;2023-04-19T02:41:00;102033.78;;;6.61;100.00
41945;BME280;63122;52.424;13.458;2023-04-19T02:42:58;102032.09;;;6.60;100.00
41945;BME280;63122;52.424;13.458;2023-04-19T02:44:56;102028.53;;;6.61;100.00
41945;BME280;63122;52.424;13.458;2023-04-19T02:46:53;102026.03;;;6.59;100.00
41945;BME280;63122;52.424;13.458;2023-04-19T02:48:51;102022.75;;;6.56;100.00
41945;BME280;63122;52.424;13.458;2023-04-19T02:50:48;102026.47;;;6.52;100.00
41945;BME280;63122;52.424;13.458;2023-04-19T02:52:46;102022.00;;;6.54;100.00
41945;BME280;63122;52.424;13.458;2023-04-19T02:54:43;102021.13;;;6.53;100.00
41945;BME280;63122;52.424;13.458;2023-04-19T02:56:46;102021.31;;;6.50;100.00
41945;BME280;63122;52.424;13.458;2023-04-19T02:58:43;102020.69;;;6.46;100.00
41945;BME280;63122;52.424;13.458;2023-04-19T03:00:42;102019.94;;;6.44;100.00
41945;BME280;63122;52.424;13.458;2023-04-19T03:02:42;102011.56;;;6.38;100.00
41945;BME280;63122;52.424;13.458;2023-04-19T03:04:38;102016.63;;;6.41;100.00
41945;BME280;63122;52.424;13.458;2023-04-19T03:06:35;102002.84;;;6.37;100.00
41945;BME280;63122;52.424;13.458;2023-04-19T03:08:32;102003.72;;;6.38;100.00
41945;BME280;63122;52.424;13.458;2023-04-19T03:10:28;102008.19;;;6.36;100.00
41945;BME280;63122;52.424;13.458;2023-04-19T03:12:29;102003.78;;;6.36;100.00
41945;BME280;63122;52.424;13.458;2023-04-19T03:14:24;102000.22;;;6.37;100.00
41945;BME280;63122;52.424;13.458;2023-04-19T03:16:21;102010.16;;;6.32;100.00
41945;BME280;63122;52.424;13.458;2023-04-19T03:18:18;102003.34;;;6.29;100.00
41945;BME280;63122;52.424;13.458;2023-04-19T03:20:14;101999.03;;;6.28;100.00
41945;BME280;63122;52.424;13.458;2023-04-19T03:22:10;101997.41;;;6.26;100.00
41945;BME280;63122;52.424;13.458;2023-04-19T03:24:06;101995.63;;;6.26;100.00
41945;BME280;63122;52.424;13.458;2023-04-19T03:26:04;101994.03;;;6.24;100.00
41945;BME280;63122;52.424;13.458;2023-04-19T03:28:03;101994.22;;;6.21;100.00
41945;BME280;63122;52.424;13.458;2023-04-19T03:29:58;101992.53;;;6.19;100.00
41945;BME280;63122;52.424;13.458;2023-04-19T03:31:54;101985.69;;;6.17;100.00
41945;BME280;63122;52.424;13.458;2023-04-19T03:33:49;101989.91;;;6.19;100.00
41945;BME280;63122;52.424;13.458;2023-04-19T03:35:44;101983.06;;;6.17;100.00
41945;BME280;63122;52.424;13.458;2023-04-19T03:37:39;101984.13;;;6.14;100.00
41945;BME280;63122;52.424;13.458;2023-04-19T03:39:35;101978.38;;;6.08;100.00
41945;BME280;63122;52.424;13.458;2023-04-19T03:41:30;101976.69;;;6.07;100.00
41945;BME280;63122;52.424;13.458;2023-04-19T03:43:28;101967.16;;;6.05;100.00
41945;BME280;63122;52.424;13.458;2023-04-19T03:45:23;101968.28;;;6.01;100.00
41945;BME280;63122;52.424;13.458;2023-04-19T03:47:18;101966.41;;;6.03;100.00
41945;BME280;63122;52.424;13.458;2023-04-19T03:49:13;101962.84;;;6.04;100.00
41945;BME280;63122;52.424;13.458;2023-04-19T03:51:09;101965.66;;;6.01;100.00
41945;BME280;63122;52.424;13.458;2023-04-19T03:53:05;101968.31;;;6.00;100.00
41945;BME280;63122;52.424;13.458;2023-04-19T03:55:01;101970.03;;;6.01;100.00
41945;BME280;63122;52.424;13.458;2023-04-19T03:56:56;101970.03;;;6.01;100.00
41945;BME280;63122;52.424;13.458;2023-04-19T03:58:54;101965.94;;;5.95;100.00
41945;BME280;63122;52.424;13.458;2023-04-19T04:00:49;101969.88;;;5.88;100.00
41945;BME280;63122;52.424;13.458;2023-04-19T04:02:44;101966.50;;;5.86;100.00
41945;BME280;63122;52.424;13.458;2023-04-19T04:04:40;101963.94;;;5.84;100.00
41945;BME280;63122;52.424;13.458;2023-04-19T04:06:36;101958.25;;;5.78;100.00
41945;BME280;63122;52.424;13.458;2023-04-19T04:08:31;101968.97;;;5.73;100.00
41945;BME280;63122;52.424;13.458;2023-04-19T04:10:26;101959.69;;;5.67;100.00
41945;BME280;63122;52.424;13.458;2023-04-19T04:12:21;101966.88;;;5.64;100.00
41945;BME280;63122;52.424;13.458;2023-04-19T04:14:19;101966.88;;;5.64;100.00
41945;BME280;63122;52.424;13.458;2023-04-19T04:16:15;101966.88;;;5.64;100.00
41945;BME280;63122;52.424;13.458;2023-04-19T04:18:10;101967.72;;;5.64;100.00
41945;BME280;63122;52.424;13.458;2023-04-19T04:20:06;101969.41;;;5.65;100.00
41945;BME280;63122;52.424;13.458;2023-04-19T04:22:05;101958.47;;;5.58;100.00
41945;BME280;63122;52.424;13.458;2023-04-19T04:24:01;101957.69;;;5.56;100.00
41945;BME280;63122;52.424;13.458;2023-04-19T04:25:56;101958.72;;;5.54;100.00
41945;BME280;63122;52.424;13.458;2023-04-19T04:27:53;101956.09;;;5.54;100.00
41945;BME280;63122;52.424;13.458;2023-04-19T04:29:51;101962.34;;;5.51;100.00
41945;BME280;63122;52.424;13.458;2023-04-19T04:31:47;101960.66;;;5.50;100.00
41945;BME280;63122;52.424;13.458;2023-04-19T04:33:43;101954.75;;;5.46;100.00
41945;BME280;63122;52.424;13.458;2023-04-19T04:35:39;101954.75;;;5.46;100.00
41945;BME280;63122;52.424;13.458;2023-04-19T04:37:34;101954.16;;;5.41;100.00
41945;BME280;63122;52.424;13.458;2023-04-19T04:39:30;101947.97;;;5.42;100.00
41945;BME280;63122;52.424;13.458;2023-04-19T04:41:30;101947.16;;;5.42;100.00
41945;BME280;63122;52.424;13.458;2023-04-19T04:43:27;101946.28;;;5.41;100.00
41945;BME280;63122;52.424;13.458;2023-04-19T04:45:26;101949.19;;;5.37;100.00
41945;BME280;63122;52.424;13.458;2023-04-19T04:47:21;101946.41;;;5.40;100.00
41945;BME280;63122;52.424;13.458;2023-04-19T04:49:17;101939.31;;;5.42;100.00
41945;BME280;63122;52.424;13.458;2023-04-19T04:51:13;101949.03;;;5.40;100.00
41945;BME280;63122;52.424;13.458;2023-04-19T04:53:08;101932.63;;;5.36;100.00
41945;BME280;63122;52.424;13.458;2023-04-19T04:55:05;101935.34;;;5.35;100.00
41945;BME280;63122;52.424;13.458;2023-04-19T04:57:01;101938.78;;;5.35;100.00
41945;BME280;63122;52.424;13.458;2023-04-19T04:58:57;101939.66;;;5.36;100.00
41945;BME280;63122;52.424;13.458;2023-04-19T05:00:55;101936.09;;;5.37;100.00
41945;BME280;63122;52.424;13.458;2023-04-19T05:02:50;101937.78;;;5.38;100.00
41945;BME280;63122;52.424;13.458;2023-04-19T05:04:46;101937.78;;;5.38;100.00
41945;BME280;63122;52.424;13.458;2023-04-19T05:06:41;101931.97;;;5.32;100.00
41945;BME280;63122;52.424;13.458;2023-04-19T05:08:36;101938.03;;;5.33;100.00
41945;BME280;63122;52.424;13.458;2023-04-19T05:10:31;101927.75;;;5.30;100.00
41945;BME280;63122;52.424;13.458;2023-04-19T05:12:27;101927.00;;;5.28;100.00
41945;BME280;63122;52.424;13.458;2023-04-19T05:14:22;101924.38;;;5.28;100.00
41945;BME280;63122;52.424;13.458;2023-04-19T05:16:20;101922.50;;;5.30;100.00
41945;BME280;63122;52.424;13.458;2023-04-19T05:18:15;101921.06;;;5.24;100.00
41945;BME280;63122;52.424;13.458;2023-04-19T05:20:11;101917.63;;;5.24;100.00
41945;BME280;63122;52.424;13.458;2023-04-19T05:22:06;101914.44;;;5.18;100.00
41945;BME280;63122;52.424;13.458;2023-04-19T05:24:01;101918.56;;;5.23;100.00
41945;BME280;63122;52.424;13.458;2023-04-19T05:25:56;101920.16;;;5.25;100.00
41945;BME280;63122;52.424;13.458;2023-04-19T05:27:52;101918.47;;;5.24;100.00
41945;BME280;63122;52.424;13.458;2023-04-19T05:29:47;101912.41;;;5.24;100.00
41945;BME280;63122;52.424;13.458;2023-04-19T05:31:45;101915.78;;;5.26;100.00
41945;BME280;63122;52.424;13.458;2023-04-19T05:33:41;101907.41;;;5.19;100.00
41945;BME280;63122;52.424;13.458;2023-04-19T05:35:36;101905.38;;;5.24;100.00
41945;BME280;63122;52.424;13.458;2023-04-19T05:37:31;101904.38;;;5.27;100.00
41945;BME280;63122;52.424;13.458;2023-04-19T05:39:28;101906.06;;;5.28;100.00
41945;BME280;63122;52.424;13.458;2023-04-19T05:41:23;101907.00;;;5.27;100.00
41945;BME280;63122;52.424;13.458;2023-04-19T05:43:18;101906.88;;;5.28;100.00
41945;BME280;63122;52.424;13.458;2023-04-19T05:45:14;101904.78;;;5.35;100.00
41945;BME280;63122;52.424;13.458;2023-04-19T05:47:12;101904.59;;;5.38;100.00
41945;BME280;63122;52.424;13.458;2023-04-19T05:49:08;101901.91;;;5.40;100.00
41945;BME280;63122;52.424;13.458;2023-04-19T05:51:04;101901.06;;;5.39;100.00
41945;BME280;63122;52.424;13.458;2023-04-19T05:52:59;101900.97;;;5.41;100.00
41945;BME280;63122;52.424;13.458;2023-04-19T05:54:54;101902.84;;;5.39;100.00
41945;BME280;63122;52.424;13.458;2023-04-19T05:56:49;101900.97;;;5.41;100.00
41945;BME280;63122;52.424;13.458;2023-04-19T05:58:45;101906.03;;;5.44;100.00
41945;BME280;63122;52.424;13.458;2023-04-19T06:00:40;101899.88;;;5.45;100.00
41945;BME280;63122;52.424;13.458;2023-04-19T06:02:38;101899.94;;;5.43;100.00
41945;BME280;63122;52.424;13.458;2023-04-19T06:04:35;101896.69;;;5.40;100.00
41945;BME280;63122;52.424;13.458;2023-04-19T06:06:31;101900.03;;;5.42;100.00
41945;BME280;63122;52.424;13.458;2023-04-19T06:08:26;101901.72;;;5.43;100.00
41945;BME280;63122;52.424;13.458;2023-04-19T06:10:21;101894.72;;;5.43;100.00
41945;BME280;63122;52.424;13.458;2023-04-19T06:12:28;101893.69;;;5.46;100.00
41945;BME280;63122;52.424;13.458;2023-04-19T06:14:25;101891.00;;;5.47;100.00
41945;BME280;63122;52.424;13.458;2023-04-19T06:16:20;101894.28;;;5.51;100.00
41945;BME280;63122;52.424;13.458;2023-04-19T06:18:19;101890.84;;;5.51;100.00
41945;BME280;63122;52.424;13.458;2023-04-19T06:20:14;101897.75;;;5.52;100.00
41945;BME280;63122;52.424;13.458;2023-04-19T06:22:09;101891.28;;;5.57;100.00
41945;BME280;63122;52.424;13.458;2023-04-19T06:24:06;101885.22;;;5.57;100.00
41945;BME280;63122;52.424;13.458;2023-04-19T06:26:01;101892.09;;;5.59;100.00
41945;BME280;63122;52.424;13.458;2023-04-19T06:27:56;101889.09;;;5.66;100.00
41945;BME280;63122;52.424;13.458;2023-04-19T06:29:52;101880.31;;;5.67;100.00
41945;BME280;63122;52.424;13.458;2023-04-19T06:31:47;101884.88;;;5.63;100.00
41945;BME280;63122;52.424;13.458;2023-04-19T06:33:45;101882.94;;;5.67;100.00
41945;BME280;63122;52.424;13.458;2023-04-19T06:35:40;101881.13;;;5.67;100.00
41945;BME280;63122;52.424;13.458;2023-04-19T06:37:36;101876.66;;;5.69;100.00
41945;BME280;63122;52.424;13.458;2023-04-19T06:39:31;101881.81;;;5.71;100.00
41945;BME280;63122;52.424;13.458;2023-04-19T06:41:26;101878.34;;;5.70;100.00
41945;BME280;63122;52.424;13.458;2023-04-19T06:43:23;101872.09;;;5.73;100.00
41945;BME280;63122;52.424;13.458;2023-04-19T06:45:18;101875.28;;;5.78;100.00
41945;BME280;63122;52.424;13.458;2023-04-19T06:47:13;101874.34;;;5.79;100.00
41945;BME280;63122;52.424;13.458;2023-04-19T06:49:11;101878.47;;;5.83;100.00
41945;BME280;63122;52.424;13.458;2023-04-19T06:51:06;101869.66;;;5.84;100.00
41945;BME280;63122;52.424;13.458;2023-04-19T06:53:03;101872.22;;;5.86;100.00
41945;BME280;63122;52.424;13.458;2023-04-19T06:54:58;101866.72;;;5.90;100.00
41945;BME280;63122;52.424;13.458;2023-04-19T06:56:55;101862.03;;;5.96;100.00
41945;BME280;63122;52.424;13.458;2023-04-19T06:58:50;101853.97;;;5.99;100.00
41945;BME280;63122;52.424;13.458;2023-04-19T07:00:46;101860.00;;;6.01;100.00
41945;BME280;63122;52.424;13.458;2023-04-19T07:02:41;101856.81;;;6.10;100.00
41945;BME280;63122;52.424;13.458;2023-04-19T07:04:39;101847.09;;;6.12;100.00
41945;BME280;63122;52.424;13.458;2023-04-19T07:06:35;101858.34;;;6.14;100.00
41945;BME280;63122;52.424;13.458;2023-04-19T07:08:32;101859.84;;;6.18;100.00
41945;BME280;63122;52.424;13.458;2023-04-19T07:10:41;101849.16;;;6.22;100.00
41945;BME280;63122;52.424;13.458;2023-04-19T07:12:37;101851.41;;;6.28;100.00
41945;BME280;63122;52.424;13.458;2023-04-19T07:14:33;101845.03;;;6.32;100.00
41945;BME280;63122;52.424;13.458;2023-04-19T07:16:28;101844.75;;;6.37;100.00
41945;BME280;63122;52.424;13.458;2023-04-19T07:18:24;101838.47;;;6.39;100.00
41945;BME280;63122;52.424;13.458;2023-04-19T07:20:22;101828.72;;;6.41;100.00
41945;BME280;63122;52.424;13.458;2023-04-19T07:22:17;101836.31;;;6.46;100.00
41945;BME280;63122;52.424;13.458;2023-04-19T07:24:13;101842.22;;;6.50;100.00
41945;BME280;63122;52.424;13.458;2023-04-19T07:26:09;101829.75;;;6.53;100.00
41945;BME280;63122;52.424;13.458;2023-04-19T07:28:06;101828.44;;;6.60;100.00
41945;BME280;63122;52.424;13.458;2023-04-19T07:30:01;101827.19;;;6.66;100.00
41945;BME280;63122;52.424;13.458;2023-04-19T07:31:57;101822.59;;;6.70;100.00
41945;BME280;63122;52.424;13.458;2023-04-19T07:33:53;101831.75;;;6.77;100.00
41945;BME280;63122;52.424;13.458;2023-04-19T07:35:51;101820.22;;;6.80;100.00
41945;BME280;63122;52.424;13.458;2023-04-19T07:37:46;101814.50;;;6.87;100.00
41945;BME280;63122;52.424;13.458;2023-04-19T07:39:42;101820.91;;;6.96;100.00
41945;BME280;63122;52.424;13.458;2023-04-19T07:41:37;101816.31;;;7.00;100.00
41945;BME280;63122;52.424;13.458;2023-04-19T07:43:32;101809.91;;;7.04;100.00
41945;BME280;63122;52.424;13.458;2023-04-19T07:45:30;101814.59;;;7.13;100.00
41945;BME280;63122;52.424;13.458;2023-04-19T07:47:25;101808.19;;;7.17;100.00
41945;BME280;63122;52.424;13.458;2023-04-19T07:49:20;101808.06;;;7.19;100.00
41945;BME280;63122;52.424;13.458;2023-04-19T07:51:18;101819.09;;;7.24;100.00
41945;BME280;63122;52.424;13.458;2023-04-19T07:53:15;101808.31;;;7.29;100.00
41945;BME280;63122;52.424;13.458;2023-04-19T07:55:11;101808.00;;;7.33;100.00
41945;BME280;63122;52.424;13.458;2023-04-19T07:57:06;101813.06;;;7.37;100.00
41945;BME280;63122;52.424;13.458;2023-04-19T07:59:02;101802.44;;;7.51;100.00
41945;BME280;63122;52.424;13.458;2023-04-19T08:01:00;101808.13;;;7.58;100.00
41945;BME280;63122;52.424;13.458;2023-04-19T08:02:56;101803.00;;;7.69;100.00
41945;BME280;63122;52.424;13.458;2023-04-19T08:04:51;101796.59;;;7.73;100.00
41945;BME280;63122;52.424;13.458;2023-04-19T08:06:52;101803.03;;;7.82;100.00
41945;BME280;63122;52.424;13.458;2023-04-19T08:08:47;101800.06;;;7.87;100.00
41945;BME280;63122;52.424;13.458;2023-04-19T08:10:42;101794.50;;;7.91;100.00
41945;BME280;63122;52.424;13.458;2023-04-19T08:12:37;101797.19;;;8.03;100.00
41945;BME280;63122;52.424;13.458;2023-04-19T08:14:54;101790.91;;;8.05;100.00
41945;BME280;63122;52.424;13.458;2023-04-19T08:17:06;101793.09;;;8.12;100.00
41945;BME280;63122;52.424;13.458;2023-04-19T08:19:04;101787.59;;;8.28;99.79
41945;BME280;63122;52.424;13.458;2023-04-19T08:20:59;101785.66;;;8.43;97.35
41945;BME280;63122;52.424;13.458;2023-04-19T08:23:17;101783.47;;;8.49;96.65
41945;BME280;63122;52.424;13.458;2023-04-19T08:30:36;101786.09;;;8.74;97.87
41945;BME280;63122;52.424;13.458;2023-04-19T08:44:45;101770.91;;;9.49;93.41
41945;BME280;63122;52.424;13.458;2023-04-19T08:47:04;101771.16;;;9.57;90.91
41945;BME280;63122;52.424;13.458;2023-04-19T08:49:04;101774.66;;;9.69;90.49
41945;BME280;63122;52.424;13.458;2023-04-19T08:51:00;101764.25;;;9.79;96.22
41945;BME280;63122;52.424;13.458;2023-04-19T08:52:58;101766.03;;;9.90;91.96
41945;BME280;63122;52.424;13.458;2023-04-19T08:55:14;101757.66;;;9.96;91.73
41945;BME280;63122;52.424;13.458;2023-04-19T08:57:09;101758.69;;;10.05;87.81
41945;BME280;63122;52.424;13.458;2023-04-19T08:59:05;101757.16;;;10.02;87.09
41945;BME280;63122;52.424;13.458;2023-04-19T09:01:12;101746.47;;;10.15;91.57
41945;BME280;63122;52.424;13.458;2023-04-19T09:03:25;101744.91;;;10.24;88.53
41945;BME280;63122;52.424;13.458;2023-04-19T09:05:21;101739.00;;;10.32;87.34
41945;BME280;63122;52.424;13.458;2023-04-19T09:07:23;101742.47;;;10.44;82.97
41945;BME280;63122;52.424;13.458;2023-04-19T09:09:20;101738.88;;;10.45;84.44
41945;BME280;63122;52.424;13.458;2023-04-19T09:11:19;101730.44;;;10.62;81.79
41945;BME280;63122;52.424;13.458;2023-04-19T09:13:17;101736.31;;;10.66;79.37
41945;BME280;63122;52.424;13.458;2023-04-19T09:15:12;101728.84;;;10.71;78.93
41945;BME280;63122;52.424;13.458;2023-04-19T09:17:15;101721.13;;;10.79;81.37
41945;BME280;63122;52.424;13.458;2023-04-19T09:19:11;101722.63;;;10.93;76.54
41945;BME280;63122;52.424;13.458;2023-04-19T09:21:26;101719.47;;;11.21;74.25
41945;BME280;63122;52.424;13.458;2023-04-19T09:23:23;101715.25;;;11.40;75.48
41945;BME280;63122;52.424;13.458;2023-04-19T09:25:23;101715.31;;;11.49;69.52
41945;BME280;63122;52.424;13.458;2023-04-19T09:27:26;101721.44;;;11.50;73.31
41945;BME280;63122;52.424;13.458;2023-04-19T09:29:22;101709.53;;;11.65;72.44
41945;BME280;63122;52.424;13.458;2023-04-19T09:31:18;101713.84;;;11.66;67.08
41945;BME280;63122;52.424;13.458;2023-04-19T09:33:36;101705.91;;;11.66;65.63
41945;BME280;63122;52.424;13.458;2023-04-19T09:35:40;101709.88;;;11.82;66.22
41945;BME280;63122;52.424;13.458;2023-04-19T09:37:36;101707.06;;;11.74;65.42
41945;BME280;63122;52.424;13.458;2023-04-19T09:39:52;101699.97;;;11.74;69.15
41945;BME280;63122;52.424;13.458;2023-04-19T09:41:51;101697.63;;;11.81;66.30
41945;BME280;63122;52.424;13.458;2023-04-19T09:43:47;101697.22;;;11.76;65.36
41945;BME280;63122;52.424;13.458;2023-04-19T09:45:46;101692.75;;;11.76;66.32
41945;BME280;63122;52.424;13.458;2023-04-19T09:47:42;101691.59;;;11.69;66.77
41945;BME280;63122;52.424;13.458;2023-04-19T09:49:40;101687.44;;;11.76;63.58
41945;BME280;63122;52.424;13.458;2023-04-19T09:51:41;101693.75;;;11.85;62.83
41945;BME280;63122;52.424;13.458;2023-04-19T09:53:38;101689.56;;;11.82;64.61
41945;BME280;63122;52.424;13.458;2023-04-19T09:55:34;101683.59;;;11.90;62.57
41945;BME280;63122;52.424;13.458;2023-04-19T09:57:51;101692.50;;;11.89;62.69
41945;BME280;63122;52.424;13.458;2023-04-19T09:59:49;101679.31;;;11.99;64.13
41945;BME280;63122;52.424;13.458;2023-04-19T10:01:46;101687.56;;;12.06;61.93
41945;BME280;63122;52.424;13.458;2023-04-19T10:03:43;101694.81;;;12.14;62.89
41945;BME280;63122;52.424;13.458;2023-04-19T10:05:43;101676.16;;;12.05;59.72
41945;BME280;63122;52.424;13.458;2023-04-19T10:07:38;101689.25;;;12.17;59.61
41945;BME280;63122;52.424;13.458;2023-04-19T10:09:34;101682.44;;;12.24;59.98
41945;BME280;63122;52.424;13.458;2023-04-19T10:11:47;101685.13;;;12.44;60.86
41945;BME280;63122;52.424;13.458;2023-04-19T10:13:53;101683.69;;;12.49;58.73
41945;BME280;63122;52.424;13.458;2023-04-19T10:15:51;101690.94;;;12.37;57.85
41945;BME280;63122;52.424;13.458;2023-04-19T10:18:04;101682.59;;;12.42;60.78
41945;BME280;63122;52.424;13.458;2023-04-19T10:20:03;101676.84;;;12.66;58.27
41945;BME280;63122;52.424;13.458;2023-04-19T10:22:03;101673.97;;;12.60;59.21